Time;durP1;ratioP1;P1;durP2;ratioP2;P2;SDS_P1;SDS_P2;PMS_P1;PMS_P2;Temp;Humidity;BMP_temperature;BMP_pressure;BME280_temperature;BME280_humidity;BME280_pressure;Samples;Min_cycle;Max_cycle;Signal;HPM_P1;HPM_P2
2022/12/13 00:01:24;;;;;;;15.25;10.28;;;;;;;-3.36;84.50;99660.16;2088521;84;21056;-83
2022/12/13 00:04:26;;;;;;;17.57;10.28;;;;;;;-3.39;84.56;99666.83;2081729;85;21013;-83
2022/12/13 00:07:29;;;;;;;16.35;10.53;;;;;;;-3.41;84.65;99668.67;2075420;86;21037;-83
2022/12/13 00:10:29;;;;;;;15.18;10.18;;;;;;;-3.41;84.75;99663.48;2059709;84;21000;-83
2022/12/13 00:13:31;;;;;;;14.78;9.78;;;;;;;-3.42;84.89;99664.42;2070856;86;21088;-83
2022/12/13 00:16:32;;;;;;;19.98;10.28;;;;;;;-3.44;84.83;99674.88;2090352;84;21009;-83
2022/12/13 00:19:33;;;;;;;18.00;10.65;;;;;;;-3.42;84.90;99669.61;2065116;86;21135;-83
2022/12/13 00:22:34;;;;;;;16.55;10.25;;;;;;;-3.42;84.98;99668.31;2086701;84;21062;-84
2022/12/13 00:25:35;;;;;;;17.55;10.55;;;;;;;-3.40;85.03;99672.95;2073591;86;21056;-83
2022/12/13 00:28:37;;;;;;;14.80;9.43;;;;;;;-3.41;85.11;99665.64;2075043;86;21031;-83
2022/12/13 00:31:38;;;;;;;15.00;9.68;;;;;;;-3.41;85.08;99666.94;2093027;84;21045;-83
2022/12/13 00:34:40;;;;;;;18.60;10.58;;;;;;;-3.40;85.07;99658.69;2065172;86;21052;-83
2022/12/13 00:37:41;;;;;;;17.25;11.18;;;;;;;-3.42;85.15;99669.14;2072151;86;21035;-83
2022/12/13 00:40:42;;;;;;;18.27;11.10;;;;;;;-3.41;85.18;99663.48;2094475;84;21560;-83
2022/12/13 00:43:44;;;;;;;17.95;10.72;;;;;;;-3.40;85.25;99665.17;2063316;84;21548;-83
2022/12/13 00:46:45;;;;;;;17.15;10.50;;;;;;;-3.41;85.24;99668.23;2067084;84;21481;-84
2022/12/13 00:49:46;;;;;;;16.75;10.63;;;;;;;-3.41;85.29;99666.08;2068939;86;21580;-84
2022/12/13 00:52:47;;;;;;;18.75;10.53;;;;;;;-3.41;85.23;99673.86;2083441;84;21501;-84
2022/12/13 00:55:49;;;;;;;18.75;11.03;;;;;;;-3.42;85.34;99674.80;2070500;86;21046;-83
2022/12/13 00:58:50;;;;;;;16.95;10.38;;;;;;;-3.40;85.31;99676.84;2090077;84;21036;-83
2022/12/13 01:01:52;;;;;;;16.55;11.33;;;;;;;-3.40;85.31;99685.93;2075445;84;21046;-83
2022/12/13 01:04:53;;;;;;;15.65;10.40;;;;;;;-3.41;85.39;99686.39;2105457;84;21073;-83
2022/12/13 01:07:56;;;;;;;17.92;11.15;;;;;;;-3.41;85.41;99682.94;2101409;84;21041;-84
2022/12/13 01:10:57;;;;;;;17.73;11.30;;;;;;;-3.41;85.41;99685.53;2101991;84;21005;-83
2022/12/13 01:13:58;;;;;;;17.87;10.35;;;;;;;-3.40;85.47;99697.61;2105081;84;21108;-83
2022/12/13 01:16:59;;;;;;;16.20;10.20;;;;;;;-3.40;85.55;99695.01;2107854;84;21095;-83
2022/12/13 01:20:01;;;;;;;19.12;11.10;;;;;;;-3.40;85.54;99688.52;2110018;83;20987;-83
2022/12/13 01:23:03;;;;;;;18.42;10.90;;;;;;;-3.40;85.48;99689.82;2109612;83;21450;-83
2022/12/13 01:26:07;;;;;;;17.45;11.55;;;;;;;-3.41;85.53;99688.98;2108723;83;21011;-84
2022/12/13 01:29:10;;;;;;;18.60;12.10;;;;;;;-3.40;85.51;99689.82;2109500;83;21045;-84
2022/12/13 01:32:11;;;;;;;17.05;10.25;;;;;;;-3.40;85.55;99683.33;2107261;83;21007;-83
2022/12/13 01:35:12;;;;;;;19.50;10.93;;;;;;;-3.40;85.52;99678.97;2112216;83;21027;-84
2022/12/13 01:38:14;;;;;;;15.32;10.50;;;;;;;-3.42;85.52;99681.28;2111149;83;21522;-84
2022/12/13 01:41:20;;;;;;;20.90;11.20;;;;;;;-3.43;85.56;99675.73;2110116;83;21012;-84
2022/12/13 01:45:01;;;;;;;16.73;11.03;;;;;;;-3.44;85.57;99679.23;2114576;83;21105;-84
2022/12/13 01:48:08;;;;;;;17.82;12.00;;;;;;;-3.45;85.53;99673.68;2108920;83;21091;-85
2022/12/13 01:51:14;;;;;;;26.07;12.33;;;;;;;-3.45;85.59;99678.41;2114534;83;20994;-85
2022/12/13 01:54:20;;;;;;;18.05;10.80;;;;;;;-3.45;85.58;99686.19;2115996;83;20959;-84
2022/12/13 01:57:23;;;;;;;18.40;10.38;;;;;;;-3.45;85.56;99680.99;2107563;83;21026;-85
2022/12/13 02:00:26;;;;;;;16.80;10.78;;;;;;;-3.44;85.56;99689.61;2109163;83;21059;-85
2022/12/13 02:03:28;;;;;;;17.35;11.18;;;;;;;-3.44;85.58;99697.39;2116324;83;21078;-85
2022/12/13 02:06:36;;;;;;;16.23;10.93;;;;;;;-3.44;85.61;99700.81;2109458;83;21085;-84
2022/12/13 02:09:38;;;;;;;16.20;11.40;;;;;;;-3.44;85.61;99707.30;2112286;83;21070;-85
2022/12/13 02:12:40;;;;;;;17.73;11.15;;;;;;;-3.43;85.58;99701.67;2106343;83;20986;-84
2022/12/13 02:16:11;;;;;;;15.28;11.25;;;;;;;-3.42;85.58;99702.03;2106157;83;21513;-84
2022/12/13 02:19:48;;;;;;;17.27;10.93;;;;;;;-3.45;85.44;99699.62;2094448;83;21041;-85
2022/12/13 02:23:08;;;;;;;15.03;9.93;;;;;;;-3.47;85.43;99702.76;2115847;83;21084;-84
2022/12/13 02:26:39;;;;;;;15.70;10.15;;;;;;;-3.48;85.44;99704.98;2109925;83;21065;-84
2022/12/13 02:29:52;;;;;;;15.13;9.70;;;;;;;-3.50;85.34;99701.64;2112146;83;21026;-85
2022/12/13 02:33:13;;;;;;;17.90;10.25;;;;;;;-3.54;85.29;99704.88;2108528;83;21041;-84
2022/12/13 02:36:35;;;;;;;13.78;9.13;;;;;;;-3.55;85.20;99701.06;2111553;83;21514;-84
2022/12/13 02:39:50;;;;;;;14.70;9.80;;;;;;;-3.59;85.28;99704.77;2087345;83;21057;-85
2022/12/13 02:43:26;;;;;;;14.93;9.93;;;;;;;-3.62;85.26;99715.67;2112759;83;21041;-85
2022/12/13 02:46:31;;;;;;;15.08;9.35;;;;;;;-3.62;85.30;99711.78;2085814;84;21065;-85
2022/12/13 02:49:37;;;;;;;15.98;9.60;;;;;;;-3.63;85.27;99698.45;2075294;84;21112;-85
2022/12/13 02:52:45;;;;;;;15.43;8.98;;;;;;;-3.64;85.19;99713.63;2070191;84;21558;-85
2022/12/13 02:55:46;;;;;;;14.10;9.43;;;;;;;-3.64;85.07;99713.63;2095082;84;21061;-85
2022/12/13 02:58:52;;;;;;;13.22;8.83;;;;;;;-3.66;84.88;99712.89;2111025;83;21005;-85
2022/12/13 03:02:25;;;;;;;13.45;8.50;;;;;;;-3.67;84.88;99712.50;2124167;83;21087;-84
2022/12/13 03:09:27;;;;;;;15.70;9.03;;;;;;;-3.68;84.68;99708.72;2059872;83;21037;-84
2022/12/13 03:16:41;;;;;;;13.83;9.00;;;;;;;-3.75;84.39;99695.70;2128301;83;21070;-85
2022/12/13 03:19:42;;;;;;;12.93;8.27;;;;;;;-3.77;84.32;99705.31;2128202;83;21065;-85
2022/12/13 03:22:44;;;;;;;13.58;8.73;;;;;;;-3.81;84.14;99709.02;2127563;83;21034;-85
2022/12/13 03:25:50;;;;;;;13.15;8.28;;;;;;;-3.85;83.94;99715.67;2126426;83;21080;-84
2022/12/13 03:28:54;;;;;;;14.33;8.43;;;;;;;-3.92;83.87;99709.61;2131095;83;21604;-85
2022/12/13 03:31:55;;;;;;;13.50;7.80;;;;;;;-3.98;83.60;99707.36;2120922;83;21460;-85
2022/12/13 03:34:56;;;;;;;13.45;8.25;;;;;;;-4.08;83.40;99709.17;2124872;83;21077;-85
2022/12/13 03:38:01;;;;;;;13.15;8.20;;;;;;;-4.15;83.40;99707.82;2131751;82;21567;-85
2022/12/13 03:41:08;;;;;;;14.03;7.92;;;;;;;-4.23;83.21;99707.86;2126501;83;21162;-85
2022/12/13 03:44:10;;;;;;;15.38;8.58;;;;;;;-4.30;83.25;99706.07;2129214;83;21079;-85
2022/12/13 03:47:11;;;;;;;13.62;7.90;;;;;;;-4.37;83.24;99710.73;2128926;83;20963;-85
2022/12/13 03:50:12;;;;;;;13.58;8.55;;;;;;;-4.45;83.07;99714.64;2124773;82;21017;-84
2022/12/13 03:53:13;;;;;;;14.55;8.43;;;;;;;-4.54;83.09;99718.09;2128431;83;21021;-85
2022/12/13 03:56:14;;;;;;;15.18;8.03;;;;;;;-4.62;83.02;99722.84;2132991;83;21654;-85
2022/12/13 03:59:16;;;;;;;15.05;8.68;;;;;;;-4.70;82.99;99722.86;2122662;82;21041;-85
2022/12/13 04:02:17;;;;;;;13.70;8.40;;;;;;;-4.78;83.00;99725.88;2118571;83;21066;-85
2022/12/13 04:05:18;;;;;;;16.27;8.85;;;;;;;-4.84;83.08;99724.87;2109646;83;21047;-85
2022/12/13 04:08:19;;;;;;;12.05;8.43;;;;;;;-4.90;83.04;99727.31;2107656;83;21045;-85
2022/12/13 04:14:40;;;;;;;13.70;8.20;;;;;;;-5.01;82.98;99733.06;2109123;83;21086;-84
2022/12/13 04:17:41;;;;;;;14.33;8.65;;;;;;;-5.10;82.98;99719.73;2105195;83;21026;-84
2022/12/13 04:20:42;;;;;;;16.90;9.60;;;;;;;-5.16;83.06;99728.64;2111996;83;21029;-84
2022/12/13 04:23:46;;;;;;;27.02;14.15;;;;;;;-5.22;83.07;99732.37;2107252;83;21061;-84
2022/12/13 04:26:49;;;;;;;18.82;10.90;;;;;;;-5.24;83.17;99732.06;2108392;83;21469;-84
2022/12/13 04:29:50;;;;;;;17.57;10.53;;;;;;;-5.25;83.18;99735.58;2111544;83;21102;-85
2022/12/13 04:32:51;;;;;;;17.30;10.18;;;;;;;-5.30;83.10;99738.38;2111837;83;21034;-85
2022/12/13 04:35:52;;;;;;;19.25;9.90;;;;;;;-5.34;83.10;99736.87;2107635;83;21596;-84
2022/12/13 04:38:53;;;;;;;16.77;9.73;;;;;;;-5.37;83.14;99738.31;2115176;83;20991;-85
2022/12/13 04:41:54;;;;;;;16.20;10.03;;;;;;;-5.44;82.96;99736.92;2113016;83;21081;-84
2022/12/13 04:44:55;;;;;;;17.02;10.05;;;;;;;-5.50;83.07;99736.77;2115111;83;21026;-84
2022/12/13 04:47:56;;;;;;;18.75;10.05;;;;;;;-5.53;83.10;99743.38;2114539;83;21110;-84
2022/12/13 04:50:59;;;;;;;18.45;10.03;;;;;;;-5.58;83.16;99738.88;2109851;83;21128;-86
2022/12/13 04:54:00;;;;;;;18.05;10.43;;;;;;;-5.61;83.20;99740.78;2112250;83;21539;-84
2022/12/13 04:57:01;;;;;;;17.12;9.48;;;;;;;-5.65;83.29;99747.40;2116002;83;21076;-84
2022/12/13 05:00:04;;;;;;;17.92;9.35;;;;;;;-5.65;83.42;99746.11;2110507;83;21065;-84
2022/12/13 05:03:06;;;;;;;18.55;9.88;;;;;;;-5.66;83.58;99750.91;2107538;83;21000;-84
2022/12/13 05:06:12;;;;;;;15.85;9.65;;;;;;;-5.65;83.71;99747.86;2109969;83;21110;-85
2022/12/13 05:09:13;;;;;;;29.85;13.30;;;;;;;-5.63;83.90;99748.63;2111750;83;21013;-84
2022/12/13 05:12:15;;;;;;;22.95;11.25;;;;;;;-5.57;84.15;99743.16;2108006;83;21040;-84
2022/12/13 05:15:16;;;;;;;20.08;11.38;;;;;;;-5.50;84.31;99735.94;2106999;83;21082;-84
2022/12/13 05:18:17;;;;;;;18.60;10.13;;;;;;;-5.44;84.39;99737.75;2109417;83;21005;-84
2022/12/13 05:21:18;;;;;;;15.50;9.58;;;;;;;-5.37;84.42;99741.36;2115288;83;21109;-85
2022/12/13 05:24:19;;;;;;;16.80;9.80;;;;;;;-5.31;84.47;99730.70;2108094;83;21452;-85
2022/12/13 05:27:20;;;;;;;13.72;9.08;;;;;;;-5.25;84.58;99731.69;2113208;83;21073;-85
2022/12/13 05:30:21;;;;;;;17.90;10.30;;;;;;;-5.19;84.63;99736.09;2107765;83;21016;-84
2022/12/13 05:33:24;;;;;;;20.10;10.55;;;;;;;-5.12;84.75;99739.23;2115793;83;20995;-84
2022/12/13 05:36:27;;;;;;;23.20;12.70;;;;;;;-5.08;84.66;99743.32;2104773;83;21040;-85
2022/12/13 05:39:28;;;;;;;50.73;22.73;;;;;;;-5.02;84.64;99734.42;2112205;83;21048;-84
2022/12/13 05:42:29;;;;;;;24.92;13.62;;;;;;;-4.98;84.66;99733.36;2103208;83;21041;-82
2022/12/13 05:45:34;;;;;;;32.05;18.40;;;;;;;-4.92;84.65;99733.51;2109779;83;21654;-82
2022/12/13 05:48:37;;;;;;;29.18;16.37;;;;;;;-4.87;84.65;99732.36;2107141;83;21018;-80
2022/12/13 05:51:39;;;;;;;28.10;16.50;;;;;;;-4.81;84.64;99733.80;2104782;83;21086;-84
2022/12/13 05:54:40;;;;;;;22.65;13.05;;;;;;;-4.75;84.60;99733.48;2112074;83;21371;-84
2022/12/13 05:57:41;;;;;;;17.27;10.55;;;;;;;-4.74;84.50;99736.44;2106611;83;21108;-82
2022/12/13 06:00:43;;;;;;;23.67;11.73;;;;;;;-4.71;84.55;99737.56;2110167;83;20990;-79
2022/12/13 06:03:44;;;;;;;15.88;9.23;;;;;;;-4.68;84.57;99739.99;2109807;83;21057;-78
2022/12/13 06:06:46;;;;;;;15.58;9.40;;;;;;;-4.64;84.57;99749.76;2113464;83;21096;-77
2022/12/13 06:09:47;;;;;;;20.97;12.35;;;;;;;-4.61;84.63;99743.13;2112304;83;22365;-78
2022/12/13 06:12:48;;;;;;;18.75;10.78;;;;;;;-4.58;84.67;99742.49;2120686;83;21572;-78
2022/12/13 06:15:50;;;;;;;21.57;10.88;;;;;;;-4.56;84.62;99744.98;2118184;83;21552;-78
2022/12/13 06:18:52;;;;;;;17.20;10.28;;;;;;;-4.56;84.55;99748.87;2115403;83;21025;-78
2022/12/13 06:21:57;;;;;;;18.62;10.23;;;;;;;-4.55;84.60;99750.56;2117842;83;21053;-78
2022/12/13 06:24:58;;;;;;;19.80;10.82;;;;;;;-4.54;84.63;99759.53;2082825;83;20967;-78
2022/12/13 06:27:59;;;;;;;27.07;12.65;;;;;;;-4.53;84.74;99755.21;2111233;83;21061;-78
2022/12/13 06:31:02;;;;;;;39.42;14.15;;;;;;;-4.51;84.73;99750.77;2108527;83;21044;-78
2022/12/13 06:34:04;;;;;;;46.98;14.40;;;;;;;-4.52;84.70;99756.41;2081851;85;21081;-78
2022/12/13 06:37:10;;;;;;;32.90;13.13;;;;;;;-4.55;84.70;99759.63;2106418;83;21069;-78
2022/12/13 06:40:11;;;;;;;31.97;14.33;;;;;;;-4.58;84.70;99758.03;2114533;83;21537;-77
2022/12/13 06:43:13;;;;;;;23.77;12.20;;;;;;;-4.60;84.75;99760.32;2105133;84;21610;-77
2022/12/13 06:46:14;;;;;;;26.80;12.93;;;;;;;-4.62;84.75;99759.09;2104441;84;20990;-77
2022/12/13 06:49:16;;;;;;;23.47;12.07;;;;;;;-4.65;84.71;99763.13;2105130;84;20994;-77
2022/12/13 06:52:17;;;;;;;24.18;14.23;;;;;;;-4.68;84.64;99759.41;2103202;84;22258;-76
2022/12/13 06:55:19;;;;;;;20.80;12.30;;;;;;;-4.70;84.64;99762.56;2106221;82;21490;-77
2022/12/13 06:58:20;;;;;;;21.52;12.25;;;;;;;-4.71;84.64;99768.63;2102667;84;21057;-77
2022/12/13 07:01:21;;;;;;;19.87;12.07;;;;;;;-4.72;84.72;99769.56;2110062;84;21059;-77
2022/12/13 07:04:22;;;;;;;23.62;13.48;;;;;;;-4.72;84.88;99767.44;2103305;84;21028;-77
2022/12/13 07:07:25;;;;;;;22.67;12.98;;;;;;;-4.69;85.15;99769.40;2107425;84;21066;-77
2022/12/13 07:10:26;;;;;;;26.68;15.90;;;;;;;-4.64;85.20;99775.19;2101480;84;21040;-74
2022/12/13 07:13:27;;;;;;;28.92;15.58;;;;;;;-4.60;85.27;99781.86;2104550;84;21021;-76
2022/12/13 07:16:28;;;;;;;27.25;13.98;;;;;;;-4.58;85.39;99781.34;2105890;84;21067;-76
2022/12/13 07:19:31;;;;;;;23.92;14.38;;;;;;;-4.57;85.43;99780.41;2101308;84;21009;-76
2022/12/13 07:22:32;;;;;;;26.70;14.30;;;;;;;-4.53;85.49;99784.53;2105648;84;21098;-76
2022/12/13 07:25:34;;;;;;;38.38;21.37;;;;;;;-4.49;85.48;99787.79;2111024;84;21007;-76
2022/12/13 07:28:37;;;;;;;37.35;19.62;;;;;;;-4.46;85.52;99788.92;2105108;84;21061;-76
2022/12/13 07:31:38;;;;;;;47.48;21.90;;;;;;;-4.41;85.66;99793.88;2104126;84;21017;-76
2022/12/13 07:34:39;;;;;;;25.65;13.05;;;;;;;-4.35;85.57;99789.66;2104306;84;21213;-76
2022/12/13 07:37:41;;;;;;;18.00;10.88;;;;;;;-4.32;85.54;99792.09;2105642;84;21476;-76
2022/12/13 07:40:42;;;;;;;24.47;13.45;;;;;;;-4.28;85.50;99794.89;2106400;84;21007;-75
2022/12/13 07:43:43;;;;;;;26.57;15.58;;;;;;;-4.22;85.54;99792.43;2108644;84;20970;-76
2022/12/13 07:46:44;;;;;;;25.23;13.85;;;;;;;-4.13;85.57;99800.57;2102197;83;21019;-75
2022/12/13 07:49:45;;;;;;;19.35;11.35;;;;;;;-4.03;85.53;99792.30;2106326;84;21513;-75
2022/12/13 07:52:48;;;;;;;22.75;12.03;;;;;;;-3.96;85.44;99798.84;2111565;84;21116;-75
2022/12/13 07:55:49;;;;;;;20.43;12.50;;;;;;;-3.84;85.49;99804.19;2102392;84;21032;-75
2022/12/13 07:58:50;;;;;;;30.55;17.57;;;;;;;-3.78;85.35;99798.30;2100487;84;21064;-75
2022/12/13 08:01:51;;;;;;;18.40;11.75;;;;;;;-3.67;85.42;99790.30;2075157;84;21010;-75
2022/12/13 08:04:52;;;;;;;18.52;11.35;;;;;;;-3.59;85.22;99798.13;2112231;83;21587;-75
2022/12/13 08:07:54;;;;;;;18.15;10.70;;;;;;;-3.59;85.05;99802.02;2106427;84;21035;-75
2022/12/13 08:11:00;;;;;;;26.93;13.05;;;;;;;-3.61;85.09;99800.33;2089203;84;21025;-75
2022/12/13 08:14:02;;;;;;;49.15;18.77;;;;;;;-3.56;85.15;99803.97;2116465;84;21009;-75
2022/12/13 08:17:03;;;;;;;22.13;12.28;;;;;;;-3.47;85.32;99806.52;2055624;85;21540;-75
2022/12/13 08:20:06;;;;;;;23.75;13.65;;;;;;;-3.34;85.27;99797.60;2059882;85;21116;-76
2022/12/13 08:23:07;;;;;;;25.48;13.78;;;;;;;-3.32;85.17;99804.81;2057213;85;21050;-75
2022/12/13 08:26:08;;;;;;;24.65;15.25;;;;;;;-3.36;84.99;99801.56;2060449;85;21138;-76
2022/12/13 08:29:11;;;;;;;26.02;15.18;;;;;;;-3.32;85.06;99800.48;2054640;85;21124;-76
2022/12/13 08:32:13;;;;;;;26.45;14.40;;;;;;;-3.32;85.05;99798.33;2056810;85;22300;-76
2022/12/13 08:35:14;;;;;;;24.50;14.80;;;;;;;-3.39;84.89;99803.04;2059835;85;21563;-76
2022/12/13 08:38:16;;;;;;;25.68;13.98;;;;;;;-3.40;85.13;99803.97;2054828;85;21053;-76
2022/12/13 08:41:17;;;;;;;29.10;17.45;;;;;;;-3.41;85.22;99806.17;2059612;85;21057;-75
2022/12/13 08:44:18;;;;;;;28.02;17.37;;;;;;;-3.43;85.30;99804.98;2055040;85;21649;-75
2022/12/13 08:47:22;;;;;;;37.03;19.67;;;;;;;-3.42;85.41;99811.83;2056108;85;21030;-75
2022/12/13 08:50:24;;;;;;;37.85;20.90;;;;;;;-3.39;85.38;99806.93;2060895;85;21035;-76
2022/12/13 08:53:25;;;;;;;39.63;22.62;;;;;;;-3.40;85.26;99797.48;2064045;85;21002;-75
2022/12/13 08:56:26;;;;;;;29.18;16.67;;;;;;;-3.41;85.24;99803.58;2055257;85;21046;-76
2022/12/13 08:59:27;;;;;;;28.87;14.75;;;;;;;-3.40;85.31;99807.39;2064526;85;21078;-76
2022/12/13 09:02:28;;;;;;;20.40;12.65;;;;;;;-3.43;85.09;99808.03;2061548;85;21017;-75
2022/12/13 09:05:31;;;;;;;25.23;12.18;;;;;;;-3.46;85.14;99809.51;2089790;85;21606;-76
2022/12/13 09:08:33;;;;;;;21.05;12.98;;;;;;;-3.50;85.04;99812.71;2071711;84;21535;-75
2022/12/13 09:11:34;;;;;;;24.18;13.38;;;;;;;-3.51;84.99;99814.11;2076929;84;21533;-75
2022/12/13 09:14:35;;;;;;;21.87;12.63;;;;;;;-3.52;84.95;99819.77;2118538;83;21025;-76
2022/12/13 09:17:37;;;;;;;21.95;12.07;;;;;;;-3.52;84.62;99813.71;2091346;83;21113;-75
2022/12/13 09:20:41;;;;;;;22.32;12.78;;;;;;;-3.53;84.29;99822.42;2103726;84;21106;-76
2022/12/13 09:23:42;;;;;;;19.50;11.80;;;;;;;-3.47;84.28;99816.89;2097482;83;21730;-76
2022/12/13 09:26:43;;;;;;;20.12;12.33;;;;;;;-3.41;83.72;99820.44;2099421;84;21077;-76
2022/12/13 09:29:47;;;;;;;21.10;12.58;;;;;;;-3.43;83.53;99823.60;2080130;84;20974;-76
2022/12/13 09:32:49;;;;;;;21.87;12.53;;;;;;;-3.42;83.71;99828.69;2101587;83;21051;-76
2022/12/13 09:35:52;;;;;;;21.00;12.15;;;;;;;-3.39;83.42;99828.98;2097774;84;21006;-75
2022/12/13 09:38:54;;;;;;;20.00;11.25;;;;;;;-3.44;82.85;99820.61;2087096;84;21144;-75
2022/12/13 09:41:57;;;;;;;25.50;12.95;;;;;;;-3.46;82.82;99822.02;2085312;85;21081;-76
2022/12/13 09:45:05;;;;;;;20.43;11.80;;;;;;;-3.33;83.01;99829.94;2075727;85;21185;-76
2022/12/13 09:48:06;;;;;;;23.62;12.82;;;;;;;-3.23;82.75;99819.89;2094538;85;21068;-76
2022/12/13 09:51:10;;;;;;;18.30;10.95;;;;;;;-3.06;82.72;99821.06;2100572;84;21022;-74
2022/12/13 09:54:18;;;;;;;20.95;12.07;;;;;;;-2.77;83.10;99814.17;2103776;83;20998;-74
2022/12/13 09:57:29;;;;;;;25.20;13.80;;;;;;;-2.30;83.18;99814.43;2094126;84;21016;-74
2022/12/13 10:00:35;;;;;;;25.25;14.15;;;;;;;-1.85;82.80;99813.85;2096341;84;21488;-74
2022/12/13 10:03:39;;;;;;;22.75;13.03;;;;;;;-1.85;81.55;99821.66;2104379;83;21049;-74
2022/12/13 10:06:41;;;;;;;18.73;11.65;;;;;;;-1.99;80.97;99817.77;2100693;84;21778;-74
2022/12/13 10:09:42;;;;;;;18.65;10.55;;;;;;;-2.19;81.09;99828.56;2120864;82;20991;-74
2022/12/13 10:12:50;;;;;;;19.07;10.78;;;;;;;-2.22;81.35;99830.02;2126694;83;21111;-74
2022/12/13 10:15:59;;;;;;;17.98;11.25;;;;;;;-2.18;81.03;99827.62;2123775;83;21055;-74
2022/12/13 10:19:17;;;;;;;19.10;10.68;;;;;;;-2.19;80.95;99820.76;2124181;83;21035;-74
2022/12/13 10:22:24;;;;;;;21.35;11.43;;;;;;;-2.13;80.43;99823.81;2125536;83;21524;-75
2022/12/13 10:25:55;;;;;;;20.00;11.20;;;;;;;-1.96;80.81;99825.85;2122818;83;21048;-75
2022/12/13 10:29:04;;;;;;;;;;;;;;;-1.82;80.52;99821.46;2122731;83;21049;-75
2022/12/13 10:32:12;;;;;;;16.37;9.85;;;;;;;-1.54;80.02;99821.04;2128002;83;20111;-74
2022/12/13 10:35:33;;;;;;;15.83;9.73;;;;;;;-1.57;79.79;99821.70;2123737;83;21087;-74
2022/12/13 10:38:41;;;;;;;18.00;9.55;;;;;;;-1.69;79.00;99818.94;2128579;83;21509;-74
2022/12/13 10:41:45;;;;;;;15.72;9.38;;;;;;;-1.95;78.98;99817.11;2122617;82;21019;-74
2022/12/13 10:44:46;;;;;;;14.93;9.55;;;;;;;-2.09;79.04;99818.78;2123548;83;21411;-75
2022/12/13 10:47:47;;;;;;;16.02;8.95;;;;;;;-2.19;79.10;99818.98;2127061;83;21060;-74
2022/12/13 10:51:05;;;;;;;31.85;15.23;;;;;;;-2.17;79.57;99814.98;2106009;83;21072;-75
2022/12/13 10:54:24;;;;;;;25.80;14.03;;;;;;;-2.10;79.62;99800.69;2125585;83;21027;-74
2022/12/13 10:57:25;;;;;;;28.73;13.62;;;;;;;-2.22;79.12;99812.67;2125672;83;21078;-74
2022/12/13 11:00:45;;;;;;;20.43;10.40;;;;;;;-2.29;79.26;99807.00;2123613;83;21587;-74
2022/12/13 11:04:02;;;;;;;17.27;10.08;;;;;;;-2.28;79.57;99807.39;2127217;82;21020;-74
2022/12/13 11:07:26;;;;;;;16.50;9.38;;;;;;;-2.24;79.17;99805.43;2122763;83;21093;-75
2022/12/13 11:10:31;;;;;;;16.23;9.63;;;;;;;-2.14;79.40;99803.09;2122171;83;21081;-75
2022/12/13 11:13:55;;;;;;;18.25;8.60;;;;;;;-2.24;78.73;99802.83;2093399;83;21031;-74
2022/12/13 11:17:07;;;;;;;17.65;8.30;;;;;;;-2.35;78.62;99803.94;2095273;83;21103;-74
2022/12/13 11:20:22;;;;;;;16.77;9.68;;;;;;;-2.55;78.86;99807.73;2116598;83;21008;-74
2022/12/13 11:23:37;;;;;;;15.98;9.55;;;;;;;-2.56;79.36;99798.25;2098330;83;21018;-74
2022/12/13 11:26:44;;;;;;;15.65;8.55;;;;;;;-2.47;79.56;99791.23;2118023;83;20996;-75
2022/12/13 11:29:57;;;;;;;14.13;8.53;;;;;;;-2.25;79.89;99793.38;2124323;83;21562;-75
2022/12/13 11:33:18;;;;;;;15.93;9.50;;;;;;;-2.14;79.45;99791.39;2125468;83;21044;-75
2022/12/13 11:36:51;;;;;;;16.65;9.88;;;;;;;-2.12;78.66;99794.74;2123326;83;21041;-75
2022/12/13 11:39:58;;;;;;;18.27;9.88;;;;;;;-2.27;78.53;99792.63;2121879;83;21006;-74
2022/12/13 11:43:22;;;;;;;17.20;9.48;;;;;;;-2.46;78.60;99793.36;2119615;83;21019;-75
2022/12/13 11:46:50;;;;;;;18.70;10.48;;;;;;;-2.52;78.70;99794.09;2123539;83;21565;-75
2022/12/13 11:49:52;;;;;;;18.15;10.72;;;;;;;-2.51;79.11;99796.22;2121029;83;21014;-74
2022/12/13 11:52:59;;;;;;;16.87;9.20;;;;;;;-2.27;79.32;99792.16;2121004;83;21560;-75
2022/12/13 11:56:36;;;;;;;16.10;9.13;;;;;;;-2.11;78.91;99798.56;2120351;83;21029;-75
2022/12/13 11:59:51;;;;;;;16.62;9.83;;;;;;;-1.96;78.43;99801.98;2099280;83;21056;-75
2022/12/13 12:02:57;;;;;;;17.90;9.78;;;;;;;-1.84;78.60;99795.17;2117116;83;21097;-75
2022/12/13 12:06:16;;;;;;;12.63;8.60;;;;;;;-1.90;78.29;99804.66;2122968;83;21110;-75
2022/12/13 12:09:22;;;;;;;15.45;9.00;;;;;;;-1.91;77.83;99800.41;2111687;83;20986;-75
2022/12/13 12:12:34;;;;;;;16.17;9.00;;;;;;;-1.79;78.28;99798.80;2120689;83;21034;-75
2022/12/13 12:15:56;;;;;;;16.30;9.48;;;;;;;-1.71;78.26;99795.25;2122512;83;22354;-75
2022/12/13 12:18:59;;;;;;;18.25;9.40;;;;;;;-1.77;77.58;99805.58;2126297;83;21076;-75
2022/12/13 12:22:38;;;;;;;16.32;10.32;;;;;;;-1.91;77.74;99809.50;2117713;83;21006;-75
2022/12/13 12:25:56;;;;;;;19.52;9.48;;;;;;;-1.98;78.20;99812.10;2126544;83;21099;-75
2022/12/13 12:29:21;;;;;;;21.12;10.93;;;;;;;-2.15;78.02;99805.33;2120691;83;21064;-76
2022/12/13 12:33:01;;;;;;;16.80;10.90;;;;;;;-2.26;77.98;99802.91;2118072;83;21513;-75
2022/12/13 12:36:39;;;;;;;16.30;9.00;;;;;;;-2.34;77.74;99813.40;2124069;83;21045;-75
2022/12/13 12:40:16;;;;;;;13.70;8.58;;;;;;;-2.44;77.58;99812.30;2120578;83;21487;-75
2022/12/13 12:43:40;;;;;;;16.30;9.28;;;;;;;-2.55;77.49;99810.33;2087807;83;21867;-75
2022/12/13 12:46:53;;;;;;;15.45;9.45;;;;;;;-2.60;77.56;99824.05;2123958;83;21581;-76
2022/12/13 12:50:20;;;;;;;13.75;8.30;;;;;;;-2.61;77.78;99826.28;2131498;83;21558;-75
2022/12/13 12:53:50;;;;;;;19.00;10.18;;;;;;;-2.61;77.59;99820.63;2123586;82;21029;-75
2022/12/13 12:57:15;;;;;;;15.67;8.77;;;;;;;-2.63;77.41;99817.27;2129470;83;21527;-75
2022/12/13 13:00:23;;;;;;;18.23;8.83;;;;;;;-2.73;77.13;99814.39;2117524;83;21069;-75
2022/12/13 13:03:28;;;;;;;14.63;8.60;;;;;;;-2.77;77.19;99815.95;2129504;83;21013;-76
2022/12/13 13:06:55;;;;;;;16.35;9.48;;;;;;;-2.70;77.37;99817.27;2129227;83;21033;-76
2022/12/13 13:09:58;;;;;;;13.68;7.92;;;;;;;-2.69;77.27;99818.10;2095108;84;21061;-76
2022/12/13 13:13:00;;;;;;;14.60;8.13;;;;;;;-2.75;76.92;99814.94;2100630;84;21043;-75
2022/12/13 13:16:03;;;;;;;15.00;8.65;;;;;;;-2.78;77.16;99824.20;2102534;84;21013;-75
2022/12/13 13:19:19;;;;;;;20.50;11.40;;;;;;;-2.79;77.40;99820.39;2103313;84;21047;-76
2022/12/13 13:22:31;;;;;;;16.90;10.03;;;;;;;-2.80;77.27;99819.55;2102023;84;21025;-75
2022/12/13 13:25:34;;;;;;;20.15;10.53;;;;;;;-2.86;77.07;99826.41;2103065;84;21086;-76
2022/12/13 13:28:35;;;;;;;25.88;11.73;;;;;;;-2.88;77.11;99823.52;2101549;84;20988;-76
2022/12/13 13:32:09;;;;;;;29.72;11.85;;;;;;;-2.94;76.91;99826.01;2100897;84;21081;-75
2022/12/13 13:35:35;;;;;;;30.12;14.10;;;;;;;-2.94;76.91;99831.20;2099725;84;21517;-76
2022/12/13 13:38:51;;;;;;;26.05;13.43;;;;;;;-2.97;76.78;99833.51;2098313;84;21126;-76
2022/12/13 13:42:17;;;;;;;28.38;14.38;;;;;;;-2.96;76.85;99829.14;2102192;84;21068;-76
2022/12/13 13:45:23;;;;;;;33.92;14.40;;;;;;;-2.94;76.86;99841.59;2100947;83;21458;-76
2022/12/13 13:49:03;;;;;;;33.30;13.85;;;;;;;-2.92;76.88;99833.26;2102439;84;20955;-76
2022/12/13 13:52:20;;;;;;;31.45;14.18;;;;;;;-2.88;76.87;99832.61;2103235;84;21348;-74
2022/12/13 13:55:59;;;;;;;27.67;13.35;;;;;;;-2.86;76.95;99841.98;2088975;84;21149;-75
2022/12/13 13:59:29;;;;;;;23.95;13.38;;;;;;;-2.84;77.01;99846.64;2022273;83;21596;-75
2022/12/13 14:03:05;;;;;;;24.23;13.72;;;;;;;-2.77;77.14;99847.94;2117579;83;21845;-75
2022/12/13 14:06:49;;;;;;;22.45;13.68;;;;;;;-2.72;77.14;99851.58;2089565;84;21045;-75
2022/12/13 14:10:08;;;;;;;24.35;13.65;;;;;;;-2.66;77.11;99857.72;2097852;84;20983;-75
2022/12/13 14:13:55;;;;;;;27.45;13.50;;;;;;;-2.63;77.08;99857.53;2089947;84;21092;-75
2022/12/13 14:17:32;;;;;;;30.82;14.58;;;;;;;-2.62;77.08;99862.26;2089760;84;21026;-76
2022/12/13 14:21:03;;;;;;;40.05;17.17;;;;;;;-2.62;77.10;99860.95;2090308;84;21062;-75
2022/12/13 14:24:25;;;;;;;47.33;18.62;;;;;;;-2.65;77.12;99859.38;2057565;85;21023;-75
2022/12/13 14:28:05;;;;;;;41.90;17.77;;;;;;;-2.70;76.98;99858.83;2063284;84;21504;-75
2022/12/13 14:31:17;;;;;;;40.28;17.27;;;;;;;-2.77;76.96;99865.29;2068474;84;21111;-75
2022/12/13 14:34:29;;;;;;;27.22;13.83;;;;;;;-2.79;77.33;99858.91;2092203;83;21018;-75
2022/12/13 14:37:34;;;;;;;30.08;13.85;;;;;;;-2.75;77.31;99866.88;2089272;84;21072;-75